Time;durP1;ratioP1;P1;durP2;ratioP2;P2;SDS_P1;SDS_P2;PMS_P1;PMS_P2;Temp;Humidity;BMP_temperature;BMP_pressure;BME280_temperature;BME280_humidity;BME280_pressure;Samples;Min_cycle;Max_cycle;Signal;HPM_P1;HPM_P2
2020/12/16 00:00:10;;;;;;;2.42;2.17;;;;;;;;;;5049679;28;20467;-66
2020/12/16 00:02:39;;;;;;;2.88;1.88;;;;;;;;;;5048919;28;20041;-66
2020/12/16 00:05:06;;;;;;;2.00;1.70;;;;;;;;;;5048474;28;20785;-66
2020/12/16 00:07:33;;;;;;;1.88;1.65;;;;;;;;;;5047959;28;20017;-66
2020/12/16 00:09:59;;;;;;;3.05;1.83;;;;;;;;;;5048749;28;20029;-66
2020/12/16 00:12:25;;;;;;;1.50;1.40;;;;;;;;;;5048319;28;20033;-66
2020/12/16 00:14:51;;;;;;;1.80;1.67;;;;;;;;;;5049074;28;20029;-66
2020/12/16 00:17:17;;;;;;;1.30;1.20;;;;;;;;;;5047750;28;20029;-67
2020/12/16 00:19:43;;;;;;;1.77;1.45;;;;;;;;;;5048655;28;20064;-67
2020/12/16 00:22:10;;;;;;;1.50;1.40;;;;;;;;;;5047870;28;20067;-66
2020/12/16 00:24:36;;;;;;;1.58;1.48;;;;;;;;;;5048473;28;20036;-66
2020/12/16 00:27:02;;;;;;;2.00;1.35;;;;;;;;;;5048844;28;20564;-66
2020/12/16 00:29:29;;;;;;;1.70;1.40;;;;;;;;;;5048182;28;20140;-66
2020/12/16 00:31:55;;;;;;;1.73;1.58;;;;;;;;;;5048865;28;20025;-66
2020/12/16 00:34:21;;;;;;;1.30;1.20;;;;;;;;;;5047835;28;20029;-66
2020/12/16 00:36:47;;;;;;;2.25;1.60;;;;;;;;;;5047558;28;20038;-66
2020/12/16 00:39:13;;;;;;;1.60;1.50;;;;;;;;;;5048171;28;20122;-67
2020/12/16 00:41:39;;;;;;;1.98;1.20;;;;;;;;;;5048752;28;20037;-66
2020/12/16 00:44:05;;;;;;;2.13;1.20;;;;;;;;;;5047591;28;20033;-66
2020/12/16 00:46:32;;;;;;;1.38;1.27;;;;;;;;;;5048299;28;20391;-66
2020/12/16 00:48:58;;;;;;;1.30;1.20;;;;;;;;;;5048537;28;20051;-66
2020/12/16 00:51:24;;;;;;;1.38;1.27;;;;;;;;;;5047946;28;20126;-66
2020/12/16 00:53:50;;;;;;;1.45;1.35;;;;;;;;;;5048149;28;20025;-66
2020/12/16 00:56:16;;;;;;;3.65;1.83;;;;;;;;;;5047077;28;20031;-67
2020/12/16 00:58:42;;;;;;;1.33;1.15;;;;;;;;;;5047720;28;20107;-66
2020/12/16 01:01:09;;;;;;;1.75;0.90;;;;;;;;;;5047512;28;20574;-67
2020/12/16 01:03:35;;;;;;;1.05;1.05;;;;;;;;;;5048174;28;20063;-67
2020/12/16 01:06:01;;;;;;;1.30;1.20;;;;;;;;;;5047799;28;20036;-67
2020/12/16 01:08:27;;;;;;;1.40;1.30;;;;;;;;;;5047181;28;20040;-66
2020/12/16 01:10:53;;;;;;;2.05;1.92;;;;;;;;;;5048771;28;20102;-66
2020/12/16 01:13:19;;;;;;;1.58;1.45;;;;;;;;;;5047472;28;20108;-66
2020/12/16 01:15:45;;;;;;;1.50;1.25;;;;;;;;;;5047594;28;20487;-66
2020/12/16 01:18:11;;;;;;;1.33;1.23;;;;;;;;;;5047608;28;20029;-67
2020/12/16 01:20:38;;;;;;;2.33;1.05;;;;;;;;;;5048200;28;20080;-66
2020/12/16 01:23:04;;;;;;;1.50;1.40;;;;;;;;;;5047873;28;20048;-66
2020/12/16 01:25:30;;;;;;;1.35;1.08;;;;;;;;;;5047391;28;20029;-66
2020/12/16 01:27:59;;;;;;;1.85;1.15;;;;;;;;;;5048010;28;20029;-66
2020/12/16 01:30:25;;;;;;;1.52;1.33;;;;;;;;;;5047805;28;20029;-66
2020/12/16 01:32:52;;;;;;;2.22;1.60;;;;;;;;;;5047755;28;20072;-66
2020/12/16 01:35:18;;;;;;;1.60;1.15;;;;;;;;;;5046731;28;20031;-66
2020/12/16 01:37:44;;;;;;;1.50;1.30;;;;;;;;;;5047003;28;20028;-66
2020/12/16 01:40:11;;;;;;;1.55;0.90;;;;;;;;;;5047575;28;20064;-66
2020/12/16 01:42:38;;;;;;;1.92;1.58;;;;;;;;;;5051771;28;20025;-66
2020/12/16 01:45:06;;;;;;;1.17;1.02;;;;;;;;;;5050533;28;20033;-66
2020/12/16 01:47:32;;;;;;;1.42;1.33;;;;;;;;;;5051528;28;20028;-66
2020/12/16 01:49:58;;;;;;;1.05;1.00;;;;;;;;;;5052213;28;20382;-66
2020/12/16 01:52:27;;;;;;;1.42;1.05;;;;;;;;;;5051200;28;20029;-66
2020/12/16 01:54:53;;;;;;;1.23;1.02;;;;;;;;;;5051214;28;20060;-66
2020/12/16 01:57:22;;;;;;;0.95;0.93;;;;;;;;;;5050854;28;20029;-67
2020/12/16 01:59:50;;;;;;;2.05;1.38;;;;;;;;;;5051989;28;20390;-66
2020/12/16 02:02:16;;;;;;;1.23;0.93;;;;;;;;;;5050824;28;20033;-66
2020/12/16 02:04:44;;;;;;;0.95;0.90;;;;;;;;;;5051032;28;20109;-66
2020/12/16 02:07:11;;;;;;;2.25;1.35;;;;;;;;;;5049913;28;20052;-66
2020/12/16 02:09:41;;;;;;;1.05;1.00;;;;;;;;;;5051774;28;20055;-66
2020/12/16 02:12:17;;;;;;;1.50;1.13;;;;;;;;;;5050876;28;20102;-66
2020/12/16 02:14:43;;;;;;;1.70;1.48;;;;;;;;;;5050969;28;20478;-67
2020/12/16 02:17:10;;;;;;;1.83;1.48;;;;;;;;;;5050917;28;20025;-67
2020/12/16 02:19:49;;;;;;;1.00;0.90;;;;;;;;;;5051387;28;20047;-67
2020/12/16 02:22:15;;;;;;;1.02;0.85;;;;;;;;;;5050021;28;20103;-67
2020/12/16 02:25:01;;;;;;;2.08;1.58;;;;;;;;;;5050992;28;20031;-67
2020/12/16 02:27:28;;;;;;;2.17;1.30;;;;;;;;;;5043237;28;20514;-66
2020/12/16 02:29:54;;;;;;;1.15;1.05;;;;;;;;;;5051390;28;20025;-66
2020/12/16 02:32:23;;;;;;;1.38;1.10;;;;;;;;;;5050086;28;20533;-66
2020/12/16 02:34:49;;;;;;;1.45;1.35;;;;;;;;;;5050638;28;20025;-66
2020/12/16 02:37:15;;;;;;;0.93;0.93;;;;;;;;;;5049223;28;20074;-67
2020/12/16 02:39:41;;;;;;;2.10;1.92;;;;;;;;;;5051409;28;20033;-66
2020/12/16 02:42:09;;;;;;;1.10;1.00;;;;;;;;;;5050155;28;20033;-66
2020/12/16 02:44:35;;;;;;;1.70;0.95;;;;;;;;;;5050407;28;20581;-66
2020/12/16 02:47:02;;;;;;;1.05;0.98;;;;;;;;;;5050685;28;20029;-66
2020/12/16 02:49:28;;;;;;;1.52;1.27;;;;;;;;;;5050901;28;20705;-66
2020/12/16 02:51:55;;;;;;;3.67;1.00;;;;;;;;;;5049685;28;20021;-66
2020/12/16 02:54:22;;;;;;;1.52;1.08;;;;;;;;;;5049500;28;20036;-66
2020/12/16 02:56:48;;;;;;;2.03;1.30;;;;;;;;;;5050679;28;20422;-66
2020/12/16 02:59:15;;;;;;;0.90;0.90;;;;;;;;;;5050082;28;20032;-66
2020/12/16 03:01:41;;;;;;;2.03;1.10;;;;;;;;;;5050398;28;20469;-66
2020/12/16 03:04:07;;;;;;;1.58;1.17;;;;;;;;;;5050023;28;20035;-66
2020/12/16 03:06:33;;;;;;;2.67;1.45;;;;;;;;;;5048769;28;20033;-66
2020/12/16 03:08:59;;;;;;;1.13;1.00;;;;;;;;;;5050405;28;20033;-66
2020/12/16 03:11:25;;;;;;;1.20;0.90;;;;;;;;;;5049959;28;20047;-66
2020/12/16 03:13:51;;;;;;;1.50;1.40;;;;;;;;;;5049964;28;20036;-66
2020/12/16 03:16:18;;;;;;;0.98;0.93;;;;;;;;;;5049226;28;20086;-67
2020/12/16 03:18:44;;;;;;;1.58;1.30;;;;;;;;;;5050159;28;20103;-66
2020/12/16 03:21:10;;;;;;;1.25;1.08;;;;;;;;;;5049475;28;20045;-67
2020/12/16 03:23:36;;;;;;;1.13;0.90;;;;;;;;;;5049624;28;20025;-66
2020/12/16 03:26:06;;;;;;;2.00;1.73;;;;;;;;;;5050443;28;20638;-66
2020/12/16 03:28:32;;;;;;;2.50;1.08;;;;;;;;;;5049963;28;20059;-66
2020/12/16 03:30:58;;;;;;;1.55;1.40;;;;;;;;;;5050424;28;20415;-66
2020/12/16 03:33:24;;;;;;;0.98;0.90;;;;;;;;;;5048948;28;20029;-67
2020/12/16 03:35:50;;;;;;;1.30;1.20;;;;;;;;;;5049286;28;20365;-66
2020/12/16 03:38:16;;;;;;;2.10;0.90;;;;;;;;;;5048505;28;20059;-67
2020/12/16 03:40:42;;;;;;;1.33;1.10;;;;;;;;;;5050047;28;20028;-66
2020/12/16 03:43:09;;;;;;;1.10;1.00;;;;;;;;;;5049204;28;20029;-66
2020/12/16 03:45:35;;;;;;;0.93;0.93;;;;;;;;;;5049259;28;20072;-66
2020/12/16 03:48:01;;;;;;;2.53;0.98;;;;;;;;;;5050182;28;20017;-66
2020/12/16 03:50:27;;;;;;;1.90;1.30;;;;;;;;;;5049067;28;20087;-66
2020/12/16 03:52:53;;;;;;;1.88;1.40;;;;;;;;;;5049567;28;20029;-66
2020/12/16 03:55:19;;;;;;;1.92;1.20;;;;;;;;;;5048700;28;20525;-67
2020/12/16 03:57:45;;;;;;;2.75;1.10;;;;;;;;;;5049522;28;20021;-66
2020/12/16 04:00:11;;;;;;;1.30;1.20;;;;;;;;;;5049058;28;20083;-67
2020/12/16 04:02:38;;;;;;;1.20;1.10;;;;;;;;;;5049258;28;20017;-66
2020/12/16 04:05:05;;;;;;;2.15;1.40;;;;;;;;;;5048068;28;20513;-66
2020/12/16 04:07:31;;;;;;;1.42;1.25;;;;;;;;;;5048128;28;20025;-67
2020/12/16 04:09:58;;;;;;;1.52;1.42;;;;;;;;;;5049272;28;20061;-66
2020/12/16 04:12:24;;;;;;;2.47;1.02;;;;;;;;;;5048301;28;20573;-66
2020/12/16 04:14:50;;;;;;;0.95;0.77;;;;;;;;;;5048955;28;20102;-66
2020/12/16 04:17:16;;;;;;;1.67;1.38;;;;;;;;;;5047958;28;20028;-66
2020/12/16 04:19:42;;;;;;;1.48;1.38;;;;;;;;;;5048897;28;20041;-66
2020/12/16 04:22:08;;;;;;;2.53;2.33;;;;;;;;;;5048256;28;20036;-67
2020/12/16 04:24:35;;;;;;;2.35;1.27;;;;;;;;;;5048437;28;20043;-66
2020/12/16 04:27:01;;;;;;;1.00;0.98;;;;;;;;;;5049106;28;20529;-66
2020/12/16 04:29:27;;;;;;;1.35;1.00;;;;;;;;;;5049192;28;20032;-66
2020/12/16 04:31:53;;;;;;;2.03;1.40;;;;;;;;;;5048498;28;20032;-66
2020/12/16 04:34:19;;;;;;;2.33;1.38;;;;;;;;;;5048027;28;20167;-66
2020/12/16 04:36:49;;;;;;;1.23;0.98;;;;;;;;;;5047218;28;20044;-66
2020/12/16 04:39:19;;;;;;;1.17;1.00;;;;;;;;;;5047862;28;20025;-67
2020/12/16 04:41:45;;;;;;;3.17;1.25;;;;;;;;;;5048795;28;20689;-66
2020/12/16 04:44:13;;;;;;;1.10;0.80;;;;;;;;;;5048067;28;20021;-66
2020/12/16 04:46:41;;;;;;;2.05;1.40;;;;;;;;;;5047840;28;20053;-66
2020/12/16 04:49:08;;;;;;;1.77;1.05;;;;;;;;;;5048612;28;20029;-67
2020/12/16 04:51:34;;;;;;;1.40;1.20;;;;;;;;;;5048752;28;20036;-66
2020/12/16 04:54:01;;;;;;;1.15;1.05;;;;;;;;;;5048278;28;20108;-66
2020/12/16 04:56:28;;;;;;;0.60;0.60;;;;;;;;;;5047494;28;20495;-66
2020/12/16 04:58:57;;;;;;;1.90;0.98;;;;;;;;;;5048714;28;20073;-66
2020/12/16 05:01:23;;;;;;;1.17;1.08;;;;;;;;;;5047719;28;20044;-66
2020/12/16 05:03:49;;;;;;;0.98;0.93;;;;;;;;;;5047992;28;20029;-66
2020/12/16 05:06:34;;;;;;;1.05;0.98;;;;;;;;;;5046181;28;20090;-67
2020/12/16 05:09:10;;;;;;;1.23;1.05;;;;;;;;;;5047860;28;20032;-66
2020/12/16 05:11:46;;;;;;;1.10;0.88;;;;;;;;;;5048496;28;20681;-66
2020/12/16 05:14:16;;;;;;;1.75;1.33;;;;;;;;;;5047531;28;20079;-66
2020/12/16 05:16:51;;;;;;;1.08;0.98;;;;;;;;;;5046947;28;20100;-66
2020/12/16 05:19:30;;;;;;;1.58;1.10;;;;;;;;;;5047506;28;20053;-67
2020/12/16 05:22:15;;;;;;;1.55;1.02;;;;;;;;;;5048032;28;20394;-66
2020/12/16 05:24:41;;;;;;;1.25;1.00;;;;;;;;;;5047104;28;20706;-66
2020/12/16 05:27:08;;;;;;;1.65;1.27;;;;;;;;;;5047807;28;20033;-67
2020/12/16 05:29:35;;;;;;;1.27;1.17;;;;;;;;;;5048058;28;20476;-66
2020/12/16 05:32:20;;;;;;;2.42;1.05;;;;;;;;;;5047833;28;20122;-66
2020/12/16 05:34:46;;;;;;;2.22;1.67;;;;;;;;;;5047387;28;20111;-66
2020/12/16 05:37:22;;;;;;;1.60;0.75;;;;;;;;;;5046051;28;20404;-67
2020/12/16 05:39:55;;;;;;;3.08;1.40;;;;;;;;;;5047986;28;20115;-66
2020/12/16 05:42:23;;;;;;;3.35;2.08;;;;;;;;;;5047041;28;20045;-66
2020/12/16 05:44:49;;;;;;;0.70;0.63;;;;;;;;;;5047472;28;20090;-66
2020/12/16 05:47:15;;;;;;;1.38;0.90;;;;;;;;;;5047165;28;20424;-67
2020/12/16 05:49:41;;;;;;;0.90;0.90;;;;;;;;;;5048048;28;20029;-66
2020/12/16 05:52:07;;;;;;;0.70;0.70;;;;;;;;;;5047940;28;20025;-67
2020/12/16 05:54:36;;;;;;;0.93;0.70;;;;;;;;;;5047325;28;20483;-66
2020/12/16 05:57:14;;;;;;;2.17;1.27;;;;;;;;;;5047322;28;20033;-66
2020/12/16 05:59:41;;;;;;;1.10;0.85;;;;;;;;;;5048097;28;20029;-66
2020/12/16 06:02:07;;;;;;;1.95;1.27;;;;;;;;;;5047290;28;20059;-67
2020/12/16 06:04:34;;;;;;;2.60;1.27;;;;;;;;;;5047502;28;20024;-66
2020/12/16 06:07:01;;;;;;;1.52;1.40;;;;;;;;;;5046373;28;20072;-66
2020/12/16 06:09:29;;;;;;;0.98;0.80;;;;;;;;;;5047438;28;20721;-67
2020/12/16 06:11:55;;;;;;;4.45;1.02;;;;;;;;;;5047647;28;20522;-66
2020/12/16 06:14:22;;;;;;;0.85;0.70;;;;;;;;;;5047005;28;20032;-66
2020/12/16 06:16:48;;;;;;;0.85;0.85;;;;;;;;;;5047206;28;20052;-66
2020/12/16 06:19:34;;;;;;;0.57;0.57;;;;;;;;;;5046710;28;20049;-67
2020/12/16 06:22:06;;;;;;;0.73;0.70;;;;;;;;;;5046902;28;20049;-67
2020/12/16 06:24:40;;;;;;;1.02;0.93;;;;;;;;;;5047308;28;20108;-66
2020/12/16 06:27:08;;;;;;;0.88;0.75;;;;;;;;;;5048298;28;20379;-67
2020/12/16 06:29:36;;;;;;;1.70;1.13;;;;;;;;;;5051223;28;20106;-66
2020/12/16 06:32:05;;;;;;;1.20;0.95;;;;;;;;;;5050680;28;20021;-66
2020/12/16 06:34:33;;;;;;;1.30;1.20;;;;;;;;;;5050196;28;20112;-66
2020/12/16 06:36:59;;;;;;;1.10;1.00;;;;;;;;;;5049180;28;20505;-66
2020/12/16 06:39:25;;;;;;;0.80;0.70;;;;;;;;;;5050476;28;20103;-66
2020/12/16 06:41:53;;;;;;;1.52;0.93;;;;;;;;;;5050618;28;20045;-66
2020/12/16 06:44:19;;;;;;;2.88;1.05;;;;;;;;;;5049808;28;20025;-66
2020/12/16 06:46:49;;;;;;;0.88;0.60;;;;;;;;;;5050610;28;20104;-66
2020/12/16 06:49:24;;;;;;;2.05;0.80;;;;;;;;;;5052690;28;20039;-67
2020/12/16 06:51:52;;;;;;;2.30;1.10;;;;;;;;;;5042265;28;20395;-66
2020/12/16 06:54:19;;;;;;;4.60;2.50;;;;;;;;;;5035378;28;20045;-66
2020/12/16 06:56:47;;;;;;;7.03;4.20;;;;;;;;;;5037806;28;20546;-66
2020/12/16 06:59:13;;;;;;;5.20;3.90;;;;;;;;;;5041921;28;20033;-67
2020/12/16 07:01:40;;;;;;;3.90;2.20;;;;;;;;;;5049907;28;20068;-67
2020/12/16 07:04:11;;;;;;;5.50;2.78;;;;;;;;;;5048257;28;20060;-66
2020/12/16 07:06:38;;;;;;;2.75;1.90;;;;;;;;;;5047879;28;20021;-66
2020/12/16 07:09:14;;;;;;;2.90;2.20;;;;;;;;;;5048061;28;20107;-67
2020/12/16 07:11:41;;;;;;;2.60;2.40;;;;;;;;;;5041198;28;20411;-66
2020/12/16 07:14:11;;;;;;;6.03;1.95;;;;;;;;;;5048516;28;20021;-67
2020/12/16 07:16:37;;;;;;;2.15;1.80;;;;;;;;;;5047932;28;20053;-66
2020/12/16 07:19:03;;;;;;;3.97;2.20;;;;;;;;;;5049184;28;20059;-66
2020/12/16 07:21:31;;;;;;;2.92;2.00;;;;;;;;;;5046598;28;20041;-67
2020/12/16 07:24:07;;;;;;;2.88;2.20;;;;;;;;;;5048019;28;20024;-67
2020/12/16 07:26:35;;;;;;;4.18;2.78;;;;;;;;;;5048233;28;20033;-66
2020/12/16 07:29:18;;;;;;;7.65;1.95;;;;;;;;;;5044618;28;20098;-67
2020/12/16 07:32:13;;;;;;;2.28;1.85;;;;;;;;;;5046413;28;20083;-67
2020/12/16 07:34:42;;;;;;;5.25;3.20;;;;;;;;;;5039570;28;20402;-68
2020/12/16 07:37:09;;;;;;;6.75;2.22;;;;;;;;;;5042641;28;20037;-67
2020/12/16 07:39:44;;;;;;;2.25;1.63;;;;;;;;;;5044002;28;20036;-69
2020/12/16 07:42:10;;;;;;;2.65;1.80;;;;;;;;;;5044950;28;20033;-67
2020/12/16 07:44:43;;;;;;;3.88;1.83;;;;;;;;;;5045859;28;20407;-66
2020/12/16 07:47:09;;;;;;;3.40;2.80;;;;;;;;;;5033982;28;20025;-66
2020/12/16 07:49:38;;;;;;;2.63;1.77;;;;;;;;;;5044500;28;20032;-67
2020/12/16 07:52:04;;;;;;;2.70;1.60;;;;;;;;;;5040487;28;20628;-67
2020/12/16 07:54:31;;;;;;;3.10;2.05;;;;;;;;;;5042887;28;20037;-66
2020/12/16 07:56:57;;;;;;;3.83;2.75;;;;;;;;;;5043039;28;20028;-66
2020/12/16 07:59:27;;;;;;;3.65;2.13;;;;;;;;;;5018986;28;20086;-66
2020/12/16 08:01:54;;;;;;;6.60;3.15;;;;;;;;;;5036445;28;20041;-67
2020/12/16 08:04:20;;;;;;;5.25;3.05;;;;;;;;;;5027821;28;20025;-67
2020/12/16 08:06:46;;;;;;;5.57;3.60;;;;;;;;;;5032656;28;20514;-66
2020/12/16 08:09:20;;;;;;;6.07;3.55;;;;;;;;;;5026416;28;20013;-66
2020/12/16 08:11:46;;;;;;;5.32;2.92;;;;;;;;;;5043450;28;20024;-66
2020/12/16 08:14:12;;;;;;;4.15;3.75;;;;;;;;;;5035981;28;20022;-66
2020/12/16 08:16:38;;;;;;;4.00;3.10;;;;;;;;;;5021941;28;20511;-66
2020/12/16 08:19:05;;;;;;;4.50;2.33;;;;;;;;;;5036658;28;20049;-66
2020/12/16 08:21:31;;;;;;;4.15;2.28;;;;;;;;;;5030325;28;20033;-66
2020/12/16 08:23:57;;;;;;;3.45;3.15;;;;;;;;;;5041884;28;20068;-67
2020/12/16 08:26:26;;;;;;;3.55;2.95;;;;;;;;;;5043005;28;20029;-66
2020/12/16 08:28:52;;;;;;;4.32;2.97;;;;;;;;;;5043409;28;20112;-66
2020/12/16 08:31:19;;;;;;;4.47;3.08;;;;;;;;;;5046167;28;20037;-66
2020/12/16 08:33:47;;;;;;;2.50;2.30;;;;;;;;;;5046885;28;20518;-66
2020/12/16 08:36:17;;;;;;;3.47;3.17;;;;;;;;;;5068590;22;20044;-83
2020/12/16 08:38:44;;;;;;;6.22;2.90;;;;;;;;;;5065912;28;20025;-85
2020/12/16 08:41:11;;;;;;;3.40;2.78;;;;;;;;;;5065731;28;20067;-84
2020/12/16 08:43:38;;;;;;;3.83;3.47;;;;;;;;;;5066698;28;20024;-84
2020/12/16 08:46:08;;;;;;;7.05;2.83;;;;;;;;;;5063032;28;20024;-85
2020/12/16 08:48:43;;;;;;;6.22;3.33;;;;;;;;;;5059166;28;20032;-84
2020/12/16 08:51:12;;;;;;;4.82;2.72;;;;;;;;;;5044454;28;20068;-82
2020/12/16 08:53:57;;;;;;;2.60;2.20;;;;;;;;;;5055224;28;20029;-84
2020/12/16 08:56:28;;;;;;;3.42;2.90;;;;;;;;;;5057387;28;20025;-84
2020/12/16 08:59:02;;;;;;;4.20;3.60;;;;;;;;;;5064016;28;20489;-84
2020/12/16 09:01:28;;;;;;;3.50;2.33;;;;;;;;;;5047488;28;20039;-82
2020/12/16 09:03:54;;;;;;;2.70;2.50;;;;;;;;;;5046721;28;20067;-84
2020/12/16 09:06:20;;;;;;;5.68;4.13;;;;;;;;;;5033031;28;20033;-87
2020/12/16 09:08:47;;;;;;;4.25;2.55;;;;;;;;;;5050955;28;20028;-86
2020/12/16 09:11:13;;;;;;;4.90;2.80;;;;;;;;;;5069806;28;20532;-84
2020/12/16 09:13:39;;;;;;;3.28;2.92;;;;;;;;;;5070675;28;20033;-86
2020/12/16 09:16:05;;;;;;;3.25;3.00;;;;;;;;;;5067681;28;20044;-82
2020/12/16 09:18:32;;;;;;;2.83;2.63;;;;;;;;;;5048590;28;20071;-86
2020/12/16 09:20:59;;;;;;;3.75;2.45;;;;;;;;;;5049159;28;20087;-85
2020/12/16 09:23:29;;;;;;;4.30;3.38;;;;;;;;;;5047428;28;20033;-84
2020/12/16 09:25:56;;;;;;;3.92;2.95;;;;;;;;;;5030968;28;20025;-83
2020/12/16 09:28:32;;;;;;;5.15;3.35;;;;;;;;;;5055360;28;20045;-84
2020/12/16 09:31:10;;;;;;;3.42;2.47;;;;;;;;;;5070812;28;20334;-86
2020/12/16 09:33:36;;;;;;;3.83;2.83;;;;;;;;;;5070740;28;20036;-85
2020/12/16 09:36:02;;;;;;;4.57;2.72;;;;;;;;;;5067568;28;20071;-84
2020/12/16 09:38:28;;;;;;;4.50;2.58;;;;;;;;;;5070339;28;20035;-83
2020/12/16 09:40:58;;;;;;;5.00;3.30;;;;;;;;;;5049369;28;20040;-86
2020/12/16 09:43:37;;;;;;;4.38;2.92;;;;;;;;;;5069919;28;20094;-86
2020/12/16 09:46:17;;;;;;;4.60;3.10;;;;;;;;;;5069012;28;20020;-85
2020/12/16 09:48:43;;;;;;;3.00;2.65;;;;;;;;;;5050774;28;20375;-85
2020/12/16 09:51:16;;;;;;;5.30;3.03;;;;;;;;;;5067102;28;20032;-86
2020/12/16 09:53:43;;;;;;;3.97;3.63;;;;;;;;;;5069418;28;20437;-87
2020/12/16 09:56:09;;;;;;;3.50;2.53;;;;;;;;;;5068639;28;20039;-84
2020/12/16 09:58:38;;;;;;;4.75;2.97;;;;;;;;;;5050485;28;20025;-86
2020/12/16 10:01:07;;;;;;;3.20;2.42;;;;;;;;;;5068805;28;20036;-84
2020/12/16 10:03:33;;;;;;;3.30;2.88;;;;;;;;;;5074778;28;20042;-85
2020/12/16 10:05:59;;;;;;;4.80;2.85;;;;;;;;;;5072603;28;20037;-84
2020/12/16 10:08:25;;;;;;;3.20;2.63;;;;;;;;;;5070137;28;20033;-81
2020/12/16 10:10:52;;;;;;;3.92;3.13;;;;;;;;;;5072306;28;20029;-86
2020/12/16 10:13:18;;;;;;;4.28;2.60;;;;;;;;;;5054380;28;20107;-85
2020/12/16 10:15:44;;;;;;;3.25;2.63;;;;;;;;;;5071840;28;20039;-86
2020/12/16 10:18:10;;;;;;;8.13;3.70;;;;;;;;;;5070070;28;20060;-85
2020/12/16 10:20:37;;;;;;;4.18;3.13;;;;;;;;;;5054789;28;20487;-84
2020/12/16 10:23:04;;;;;;;4.60;3.22;;;;;;;;;;5050460;28;20117;-87
2020/12/16 10:25:31;;;;;;;4.32;2.80;;;;;;;;;;5050960;28;20032;-84
2020/12/16 10:27:57;;;;;;;5.50;3.33;;;;;;;;;;5056189;28;20021;-89
2020/12/16 10:30:25;;;;;;;3.70;2.78;;;;;;;;;;5051562;28;20029;-85
2020/12/16 10:32:52;;;;;;;5.15;2.85;;;;;;;;;;5047367;28;20016;-87
2020/12/16 10:35:18;;;;;;;7.00;3.25;;;;;;;;;;5073934;28;20056;-87
2020/12/16 10:37:45;;;;;;;7.35;3.25;;;;;;;;;;5041166;28;20482;-87
2020/12/16 10:40:12;;;;;;;2.83;2.63;;;;;;;;;;5037591;28;20029;-86
2020/12/16 10:42:38;;;;;;;3.85;2.55;;;;;;;;;;5062977;28;20029;-82
2020/12/16 10:45:05;;;;;;;5.10;4.28;;;;;;;;;;5053266;28;20031;-87
2020/12/16 10:47:32;;;;;;;3.75;3.13;;;;;;;;;;5052814;28;20017;-86
2020/12/16 10:49:58;;;;;;;4.10;3.15;;;;;;;;;;5073449;28;20032;-86
2020/12/16 10:52:24;;;;;;;5.43;3.90;;;;;;;;;;5074600;28;20032;-87
2020/12/16 10:54:50;;;;;;;7.72;6.72;;;;;;;;;;5075209;28;20536;-87
2020/12/16 10:57:16;;;;;;;7.50;4.22;;;;;;;;;;5053422;28;20081;-85
2020/12/16 10:59:42;;;;;;;11.77;3.58;;;;;;;;;;5053437;28;20032;-86
2020/12/16 11:02:09;;;;;;;5.93;4.22;;;;;;;;;;5050093;28;20037;-86
2020/12/16 11:04:35;;;;;;;5.25;3.80;;;;;;;;;;5049862;28;20025;-86
2020/12/16 11:07:01;;;;;;;6.88;4.38;;;;;;;;;;5046565;28;20108;-85
2020/12/16 11:09:27;;;;;;;6.28;3.53;;;;;;;;;;5048508;28;20137;-83
2020/12/16 11:11:54;;;;;;;9.07;3.45;;;;;;;;;;5067861;28;20476;-84
2020/12/16 11:14:21;;;;;;;8.30;4.10;;;;;;;;;;5064815;28;20024;-84
2020/12/16 11:16:48;;;;;;;10.98;4.07;;;;;;;;;;5054779;28;20025;-84
2020/12/16 11:19:15;;;;;;;7.50;3.95;;;;;;;;;;5052643;28;20032;-83
2020/12/16 11:21:47;;;;;;;3.90;3.58;;;;;;;;;;5060902;28;20040;-84
2020/12/16 11:24:14;;;;;;;4.22;3.83;;;;;;;;;;5056246;28;20025;-84
2020/12/16 11:26:41;;;;;;;4.30;3.65;;;;;;;;;;5050027;28;20056;-84
2020/12/16 11:29:08;;;;;;;5.63;3.63;;;;;;;;;;5025981;28;20914;-84
2020/12/16 11:31:45;;;;;;;9.25;4.28;;;;;;;;;;5048273;28;20106;-84
2020/12/16 11:34:12;;;;;;;7.32;4.00;;;;;;;;;;5063273;28;20070;-84
2020/12/16 11:36:42;;;;;;;7.63;4.22;;;;;;;;;;5057412;28;20537;-84
2020/12/16 11:39:08;;;;;;;6.63;5.00;;;;;;;;;;5030644;28;20032;-84
2020/12/16 11:41:34;;;;;;;4.45;3.28;;;;;;;;;;5050089;28;20043;-85
2020/12/16 11:44:00;;;;;;;7.65;5.63;;;;;;;;;;5064631;28;20108;-84
2020/12/16 11:46:27;;;;;;;6.70;4.72;;;;;;;;;;5056309;28;20029;-85
2020/12/16 11:48:53;;;;;;;7.15;3.83;;;;;;;;;;5057687;28;20021;-83
2020/12/16 11:51:20;;;;;;;5.82;4.18;;;;;;;;;;5061625;28;20024;-84
2020/12/16 11:53:46;;;;;;;5.65;3.72;;;;;;;;;;5061177;28;20025;-84
2020/12/16 11:56:12;;;;;;;6.57;4.60;;;;;;;;;;5057485;28;20032;-84
2020/12/16 11:58:39;;;;;;;4.22;3.45;;;;;;;;;;5057342;28;20025;-85
2020/12/16 12:01:05;;;;;;;5.40;3.72;;;;;;;;;;5062523;28;20079;-84
2020/12/16 12:03:31;;;;;;;5.20;3.85;;;;;;;;;;5055635;28;20029;-84
2020/12/16 12:05:57;;;;;;;6.28;4.65;;;;;;;;;;5043267;28;20107;-84
2020/12/16 12:08:23;;;;;;;5.90;4.13;;;;;;;;;;5048893;28;20036;-85
2020/12/16 12:10:49;;;;;;;4.65;3.53;;;;;;;;;;5060000;28;20041;-84
2020/12/16 12:13:15;;;;;;;4.53;3.63;;;;;;;;;;5058925;28;20079;-85
2020/12/16 12:15:41;;;;;;;5.88;3.83;;;;;;;;;;5056910;28;20029;-85
2020/12/16 12:18:07;;;;;;;5.78;4.57;;;;;;;;;;5062807;28;20052;-86
2020/12/16 12:20:33;;;;;;;5.78;3.67;;;;;;;;;;5040460;28;20399;-86
2020/12/16 12:22:59;;;;;;;6.03;4.70;;;;;;;;;;5038000;28;20080;-85
2020/12/16 12:25:25;;;;;;;8.90;5.70;;;;;;;;;;5051500;28;20092;-85
2020/12/16 12:27:51;;;;;;;5.25;3.67;;;;;;;;;;5047565;28;20037;-87
2020/12/16 12:30:18;;;;;;;3.88;3.15;;;;;;;;;;5047880;28;20040;-87
2020/12/16 12:32:44;;;;;;;5.18;3.90;;;;;;;;;;5051325;28;20025;-85
2020/12/16 12:35:10;;;;;;;5.50;3.78;;;;;;;;;;5057659;28;20057;-86
2020/12/16 12:37:36;;;;;;;4.90;3.60;;;;;;;;;;5045672;28;20024;-87
2020/12/16 12:40:02;;;;;;;7.13;3.38;;;;;;;;;;5047758;28;20490;-86
2020/12/16 12:42:28;;;;;;;6.78;3.90;;;;;;;;;;5060548;28;20090;-87
2020/12/16 12:44:54;;;;;;;4.22;3.15;;;;;;;;;;5067278;28;20436;-87
2020/12/16 12:47:21;;;;;;;4.60;4.20;;;;;;;;;;5067999;28;20020;-87
2020/12/16 12:49:47;;;;;;;5.47;3.90;;;;;;;;;;5031199;28;20033;-87
2020/12/16 12:52:13;;;;;;;6.47;3.10;;;;;;;;;;5047360;28;20061;-88
2020/12/16 12:54:39;;;;;;;6.40;2.90;;;;;;;;;;5051331;28;20040;-84
2020/12/16 12:57:05;;;;;;;6.40;3.58;;;;;;;;;;5057292;28;20028;-87
2020/12/16 12:59:31;;;;;;;3.22;2.90;;;;;;;;;;5023685;28;20123;-89
2020/12/16 13:01:57;;;;;;;3.95;3.33;;;;;;;;;;5029946;28;20032;-91
2020/12/16 13:04:23;;;;;;;3.72;2.88;;;;;;;;;;5039456;28;20024;-87
2020/12/16 13:06:49;;;;;;;3.40;2.85;;;;;;;;;;5057797;28;20086;-88
2020/12/16 13:09:15;;;;;;;5.35;2.60;;;;;;;;;;5055322;28;20032;-87
2020/12/16 13:11:41;;;;;;;5.60;3.15;;;;;;;;;;5050264;28;20025;-90
2020/12/16 13:14:07;;;;;;;4.18;2.88;;;;;;;;;;5045916;28;20071;-91
2020/12/16 13:16:33;;;;;;;5.85;2.20;;;;;;;;;;5046246;28;20028;-89
2020/12/16 13:19:00;;;;;;;3.30;2.58;;;;;;;;;;5050589;28;20032;-89
2020/12/16 13:21:26;;;;;;;3.05;2.28;;;;;;;;;;5058491;28;20041;-90
2020/12/16 13:23:52;;;;;;;6.38;3.33;;;;;;;;;;5027812;28;20041;-87
2020/12/16 13:26:18;;;;;;;4.45;2.40;;;;;;;;;;5047016;28;20060;-87
2020/12/16 13:28:44;;;;;;;3.55;1.98;;;;;;;;;;5046999;28;20107;-88
2020/12/16 13:31:10;;;;;;;2.88;2.60;;;;;;;;;;5045678;28;20025;-86
2020/12/16 13:33:37;;;;;;;4.47;2.88;;;;;;;;;;5064821;28;20025;-91
2020/12/16 13:36:03;;;;;;;1.88;1.77;;;;;;;;;;5036418;28;20642;-88
2020/12/16 13:38:29;;;;;;;5.90;2.17;;;;;;;;;;5048757;28;20025;-88
2020/12/16 13:40:56;;;;;;;2.22;2.00;;;;;;;;;;5053574;28;20036;-91
2020/12/16 13:43:22;;;;;;;2.80;2.05;;;;;;;;;;5031921;28;20036;-91
2020/12/16 13:45:48;;;;;;;2.15;1.85;;;;;;;;;;5059051;28;20028;-90
2020/12/16 13:48:14;;;;;;;2.08;1.77;;;;;;;;;;5046223;28;20044;-89
2020/12/16 13:50:40;;;;;;;3.05;2.10;;;;;;;;;;5050199;28;20100;-91
2020/12/16 13:53:07;;;;;;;3.17;2.13;;;;;;;;;;5060494;28;20021;-90
2020/12/16 13:55:33;;;;;;;1.90;1.70;;;;;;;;;;5065505;28;20415;-90
2020/12/16 13:57:59;;;;;;;2.55;2.35;;;;;;;;;;5032269;28;20124;-90
2020/12/16 14:00:25;;;;;;;2.63;1.90;;;;;;;;;;5055156;28;20037;-90
2020/12/16 14:02:51;;;;;;;2.13;1.85;;;;;;;;;;5064807;28;20448;-94
2020/12/16 14:05:17;;;;;;;2.78;1.92;;;;;;;;;;5039006;28;20034;-94
2020/12/16 14:07:43;;;;;;;1.85;1.70;;;;;;;;;;5068885;28;20024;-90
2020/12/16 14:10:10;;;;;;;1.92;1.70;;;;;;;;;;5049781;28;20040;-89
2020/12/16 14:12:36;;;;;;;1.73;1.63;;;;;;;;;;5051544;28;20044;-89
2020/12/16 14:15:02;;;;;;;3.65;1.65;;;;;;;;;;5060899;28;20038;-89
2020/12/16 14:17:28;;;;;;;1.67;1.20;;;;;;;;;;5068608;28;20123;-88
2020/12/16 14:19:54;;;;;;;2.70;2.50;;;;;;;;;;5069623;28;20032;-88
2020/12/16 14:22:20;;;;;;;2.97;1.48;;;;;;;;;;5065776;28;20039;-90
2020/12/16 14:24:47;;;;;;;2.03;1.65;;;;;;;;;;5032898;28;20155;-89
2020/12/16 14:27:13;;;;;;;3.38;2.53;;;;;;;;;;5049990;28;20021;-89
2020/12/16 14:29:39;;;;;;;2.88;2.53;;;;;;;;;;5051272;28;20025;-90
2020/12/16 14:32:05;;;;;;;2.65;1.83;;;;;;;;;;5051448;28;20104;-90
2020/12/16 14:34:31;;;;;;;2.00;1.88;;;;;;;;;;5061241;28;20038;-90
2020/12/16 14:36:57;;;;;;;1.70;1.40;;;;;;;;;;5065164;28;20506;-88
2020/12/16 14:39:24;;;;;;;2.03;1.13;;;;;;;;;;5060682;28;20032;-90
2020/12/16 14:41:58;;;;;;;2.38;1.45;;;;;;;;;;5032316;28;20565;-86
2020/12/16 14:44:28;;;;;;;1.48;1.38;;;;;;;;;;5030496;28;20032;-87